Time;durP1;ratioP1;P1;durP2;ratioP2;P2;SDS_P1;SDS_P2;PMS_P1;PMS_P2;Temp;Humidity;BMP_temperature;BMP_pressure;BME280_temperature;BME280_humidity;BME280_pressure;Samples;Min_cycle;Max_cycle;Signal;HPM_P1;HPM_P2
2023/04/13 00:00:46;;;;;;;8.07;1.37;;;8.40;99.90;;;;;;7286340;19;20186;-77
2023/04/13 00:03:15;;;;;;;9.63;1.60;;;8.40;99.90;;;;;;7287675;19;20317;-77
2023/04/13 00:05:42;;;;;;;7.73;1.50;;;8.50;99.90;;;;;;7287238;19;20203;-78
2023/04/13 00:08:07;;;;;;;10.70;1.57;;;8.60;99.90;;;;;;7287500;19;20205;-77
2023/04/13 00:10:40;;;;;;;16.53;2.17;;;8.60;99.90;;;;;;7309008;19;20630;-77
2023/04/13 00:13:08;;;;;;;13.40;1.90;;;8.70;99.90;;;;;;7281982;19;20275;-77
2023/04/13 00:15:35;;;;;;;9.40;1.33;;;8.70;99.90;;;;;;7309482;19;20180;-77
2023/04/13 00:18:02;;;;;;;8.17;1.73;;;8.60;99.90;;;;;;7287141;19;20192;-78
2023/04/13 00:20:28;;;;;;;11.70;1.87;;;8.50;99.90;;;;;;7287885;19;20714;-77
2023/04/13 00:22:54;;;;;;;9.70;1.60;;;8.40;99.90;;;;;;7287165;19;20192;-78
2023/04/13 00:25:19;;;;;;;12.00;2.00;;;8.30;99.90;;;;;;7286206;19;20531;-78
2023/04/13 00:27:45;;;;;;;10.70;1.50;;;8.20;99.90;;;;;;7286378;19;20190;-77
2023/04/13 00:30:13;;;;;;;10.30;1.87;;;8.20;99.90;;;;;;7286747;19;20189;-78
2023/04/13 00:32:41;;;;;;;14.40;1.80;;;8.30;99.90;;;;;;7286213;19;20821;-77
2023/04/13 00:35:08;;;;;;;10.60;1.17;;;8.30;99.90;;;;;;7301936;19;20641;-77
2023/04/13 00:37:34;;;;;;;8.50;2.13;;;8.20;99.90;;;;;;7309346;19;20207;-78
2023/04/13 00:40:00;;;;;;;12.60;1.80;;;8.10;99.90;;;;;;7288014;19;20183;-77
2023/04/13 00:42:26;;;;;;;9.07;1.83;;;8.00;99.90;;;;;;7287830;19;20197;-78
2023/04/13 00:44:53;;;;;;;11.00;1.83;;;8.00;99.90;;;;;;7287797;19;20194;-78
2023/04/13 00:47:34;;;;;;;12.07;1.70;;;8.00;99.90;;;;;;7287291;19;20196;-77
2023/04/13 00:50:02;;;;;;;11.47;2.13;;;8.00;99.90;;;;;;7287688;19;20216;-77
2023/04/13 00:52:28;;;;;;;11.00;1.60;;;8.00;99.90;;;;;;7286851;19;20191;-78
2023/04/13 00:54:56;;;;;;;11.93;1.60;;;8.00;99.90;;;;;;7286167;19;20749;-77
2023/04/13 00:57:24;;;;;;;10.60;1.73;;;8.00;99.90;;;;;;7284245;19;20190;-77
2023/04/13 00:59:51;;;;;;;12.50;1.60;;;7.90;99.90;;;;;;7286460;19;20195;-77
2023/04/13 01:02:21;;;;;;;10.57;1.80;;;8.00;99.90;;;;;;7286133;19;20219;-78
2023/04/13 01:04:48;;;;;;;11.20;1.80;;;8.00;99.90;;;;;;7286818;19;20222;-78
2023/04/13 01:07:46;;;;;;;11.40;1.60;;;7.90;99.90;;;;;;7286968;19;20190;-78
2023/04/13 01:10:24;;;;;;;8.80;1.40;;;7.90;99.90;;;;;;7182127;19;2004375;-77
2023/04/13 01:13:02;;;;;;;6.53;2.00;;;7.90;99.90;;;;;;7286132;19;20196;-77
2023/04/13 01:15:35;;;;;;;9.90;1.43;;;7.90;99.90;;;;;;7286067;19;20198;-78
2023/04/13 01:18:08;;;;;;;7.47;1.20;;;8.00;99.90;;;;;;7285894;19;20189;-78
2023/04/13 01:20:37;;;;;;;11.27;1.50;;;8.00;99.90;;;;;;7287434;19;20188;-78
2023/04/13 01:23:08;;;;;;;12.47;1.97;;;8.00;99.90;;;;;;7285955;19;20232;-76
2023/04/13 01:25:49;;;;;;;10.40;1.63;;;8.00;99.90;;;;;;7286382;19;20214;-76
2023/04/13 01:28:21;;;;;;;10.20;1.60;;;8.00;99.90;;;;;;7183508;19;2004590;-76
2023/04/13 01:30:48;;;;;;;10.43;1.70;;;8.10;99.90;;;;;;7285105;19;20597;-77
2023/04/13 01:33:15;;;;;;;10.37;1.67;;;8.20;99.90;;;;;;7285229;19;20593;-77
2023/04/13 01:35:41;;;;;;;10.03;1.50;;;8.20;99.90;;;;;;7286637;19;20197;-76
2023/04/13 01:38:11;;;;;;;13.07;2.40;;;8.20;99.90;;;;;;7283591;19;20743;-76
2023/04/13 01:40:40;;;;;;;13.03;2.23;;;8.20;99.90;;;;;;7297322;19;20203;-76
2023/04/13 01:43:07;;;;;;;12.07;1.63;;;8.20;99.90;;;;;;7300714;19;20192;-75
2023/04/13 01:46:03;;;;;;;17.17;2.13;;;8.20;99.90;;;;;;7286578;19;20555;-77
2023/04/13 01:48:43;;;;;;;15.13;2.30;;;8.30;99.90;;;;;;7286079;19;20593;-77
2023/04/13 01:51:24;;;;;;;13.97;2.13;;;8.40;99.90;;;;;;7182186;19;2006070;-77
2023/04/13 01:53:56;;;;;;;19.63;2.53;;;8.50;99.90;;;;;;7284274;19;20199;-77
2023/04/13 01:56:23;;;;;;;14.27;2.30;;;8.50;99.90;;;;;;7285441;19;20199;-77
2023/04/13 01:58:57;;;;;;;10.03;1.60;;;8.60;99.90;;;;;;7284196;19;20197;-77
2023/04/13 02:01:24;;;;;;;5.93;0.93;;;8.50;99.90;;;;;;7285945;19;20557;-77
2023/04/13 02:03:51;;;;;;;4.63;0.90;;;8.30;99.90;;;;;;7284445;19;20198;-76
2023/04/13 02:06:17;;;;;;;4.50;0.83;;;8.20;99.90;;;;;;7284494;19;20194;-76
2023/04/13 02:08:44;;;;;;;6.70;1.00;;;8.10;99.90;;;;;;7283524;19;20703;-76
2023/04/13 02:11:11;;;;;;;8.33;1.40;;;8.10;99.90;;;;;;7284103;19;20190;-76
2023/04/13 02:13:37;;;;;;;4.93;0.73;;;8.10;99.90;;;;;;7298120;19;20193;-76
2023/04/13 02:16:08;;;;;;;4.17;1.10;;;8.10;99.90;;;;;;7306292;19;20204;-77
2023/04/13 02:18:34;;;;;;;4.97;0.80;;;8.00;99.90;;;;;;7286086;19;20529;-77
2023/04/13 02:21:10;;;;;;;2.00;0.63;;;8.10;99.90;;;;;;7285154;19;20731;-77
2023/04/13 02:23:37;;;;;;;3.47;0.60;;;8.10;99.90;;;;;;7284649;19;20237;-77
2023/04/13 02:26:06;;;;;;;3.07;0.60;;;8.00;99.90;;;;;;7284167;19;20185;-77
2023/04/13 02:28:32;;;;;;;3.27;0.50;;;7.90;99.90;;;;;;7285313;19;20207;-77
2023/04/13 02:30:58;;;;;;;4.20;0.50;;;7.90;99.90;;;;;;7283684;19;21079;-77
2023/04/13 02:33:29;;;;;;;2.40;0.60;;;7.90;99.90;;;;;;7284922;19;20185;-77
2023/04/13 02:35:55;;;;;;;4.50;0.60;;;7.90;99.90;;;;;;7282522;19;20733;-77
2023/04/13 02:38:22;;;;;;;1.03;0.43;;;7.80;99.90;;;;;;7284154;19;20252;-77
2023/04/13 02:40:56;;;;;;;2.00;0.40;;;7.70;99.90;;;;;;7284117;19;20190;-77
2023/04/13 02:43:22;;;;;;;2.90;0.50;;;7.70;99.90;;;;;;7283986;19;20653;-77
2023/04/13 02:45:48;;;;;;;2.67;0.43;;;7.70;99.90;;;;;;7284333;19;20258;-78
2023/04/13 02:48:16;;;;;;;2.50;0.57;;;7.90;99.90;;;;;;7287983;19;20278;-77
2023/04/13 02:50:42;;;;;;;1.80;0.50;;;7.90;99.90;;;;;;7283727;19;20602;-76
2023/04/13 02:53:15;;;;;;;5.07;0.77;;;7.90;99.90;;;;;;7282729;19;20199;-77
2023/04/13 02:55:43;;;;;;;3.20;0.60;;;8.00;99.90;;;;;;7280203;19;20617;-77
2023/04/13 02:58:12;;;;;;;3.00;0.50;;;8.10;99.90;;;;;;7283867;19;20215;-76
2023/04/13 03:00:39;;;;;;;3.07;0.60;;;8.10;99.90;;;;;;7282604;19;20181;-76
2023/04/13 03:03:10;;;;;;;4.67;0.77;;;8.10;99.90;;;;;;7282360;19;20800;-76
2023/04/13 03:05:42;;;;;;;4.27;0.60;;;8.10;99.90;;;;;;7282022;19;20599;-77
2023/04/13 03:08:13;;;;;;;6.63;0.80;;;8.00;99.90;;;;;;7285313;19;20555;-76
2023/04/13 03:10:50;;;;;;;5.80;0.83;;;8.10;99.90;;;;;;7283006;19;20201;-76
2023/04/13 03:13:16;;;;;;;6.57;1.10;;;8.10;99.90;;;;;;7281606;19;20192;-76
2023/04/13 03:15:42;;;;;;;6.20;1.03;;;8.10;99.90;;;;;;7282246;19;20206;-76
2023/04/13 03:18:10;;;;;;;7.23;0.90;;;8.10;99.90;;;;;;7281010;19;20646;-76
2023/04/13 03:20:36;;;;;;;7.87;1.30;;;8.10;99.90;;;;;;7303344;19;20181;-75
2023/04/13 03:23:03;;;;;;;9.63;1.27;;;8.30;99.90;;;;;;7283885;19;20197;-77
2023/04/13 03:25:32;;;;;;;7.63;1.10;;;8.40;99.90;;;;;;7283605;19;20197;-76
2023/04/13 03:27:58;;;;;;;5.03;1.00;;;8.40;99.90;;;;;;7281952;19;20851;-77
2023/04/13 03:30:28;;;;;;;9.00;1.50;;;8.40;99.90;;;;;;7281784;19;20189;-77
2023/04/13 03:32:58;;;;;;;5.57;1.30;;;8.30;99.90;;;;;;7282300;19;20182;-77
2023/04/13 03:35:26;;;;;;;7.33;1.20;;;8.40;99.90;;;;;;7282098;19;21021;-77
2023/04/13 03:37:53;;;;;;;5.33;1.20;;;8.30;99.90;;;;;;7281272;19;20180;-77
2023/04/13 03:40:29;;;;;;;6.40;1.43;;;8.40;99.90;;;;;;7282785;19;20200;-77
2023/04/13 03:42:55;;;;;;;7.03;1.10;;;8.30;99.90;;;;;;7281545;19;20208;-76
2023/04/13 03:45:24;;;;;;;10.13;1.40;;;8.30;99.90;;;;;;7280613;19;20187;-77
2023/04/13 03:47:51;;;;;;;10.37;1.60;;;8.40;99.90;;;;;;7281472;19;20214;-76
2023/04/13 03:50:20;;;;;;;10.27;1.57;;;8.30;99.90;;;;;;7282204;19;20645;-76
2023/04/13 03:52:46;;;;;;;14.50;2.27;;;8.30;99.90;;;;;;7281129;19;20194;-76
2023/04/13 03:55:12;;;;;;;10.10;1.60;;;8.30;99.90;;;;;;7282848;19;20271;-78
2023/04/13 03:57:40;;;;;;;11.67;1.67;;;8.30;99.90;;;;;;7278271;19;20210;-76
2023/04/13 04:00:12;;;;;;;10.43;1.57;;;8.30;99.90;;;;;;7285791;19;20186;-76
2023/04/13 04:02:55;;;;;;;10.03;1.70;;;8.30;99.90;;;;;;7281907;19;20288;-76
2023/04/13 04:05:29;;;;;;;11.03;1.90;;;8.40;99.90;;;;;;7279924;19;20295;-77
2023/04/13 04:08:00;;;;;;;10.87;1.90;;;8.50;99.90;;;;;;7288693;19;20202;-77
2023/04/13 04:10:27;;;;;;;20.30;2.40;;;8.60;99.90;;;;;;7288095;19;20552;-77
2023/04/13 04:12:56;;;;;;;11.43;2.10;;;8.70;99.90;;;;;;7288565;19;20202;-77
2023/04/13 04:15:22;;;;;;;15.70;2.07;;;8.70;99.90;;;;;;7288192;19;20195;-76
2023/04/13 04:17:54;;;;;;;13.03;1.87;;;8.70;99.90;;;;;;7287371;19;20215;-77
2023/04/13 04:20:20;;;;;;;8.90;1.57;;;8.60;99.90;;;;;;7287665;19;20196;-76
2023/04/13 04:22:46;;;;;;;8.13;1.40;;;8.60;99.90;;;;;;7288673;19;20187;-76
2023/04/13 04:25:20;;;;;;;10.00;1.50;;;8.60;99.90;;;;;;7288066;19;20195;-76
2023/04/13 04:27:49;;;;;;;7.93;1.50;;;8.60;99.90;;;;;;7289199;19;20564;-77
2023/04/13 04:30:21;;;;;;;8.73;1.33;;;8.70;99.90;;;;;;7285446;19;20248;-77
2023/04/13 04:32:47;;;;;;;5.60;1.23;;;8.70;99.90;;;;;;7287233;19;20200;-77
2023/04/13 04:35:24;;;;;;;6.87;1.40;;;8.80;99.90;;;;;;7285924;19;20748;-77
2023/04/13 04:37:54;;;;;;;5.90;1.40;;;8.80;99.90;;;;;;7286279;19;20193;-77
2023/04/13 04:40:21;;;;;;;7.70;1.20;;;8.70;99.90;;;;;;7288409;19;20184;-77
2023/04/13 04:42:48;;;;;;;7.77;1.30;;;8.60;99.90;;;;;;7286293;19;20553;-77
2023/04/13 04:45:26;;;;;;;5.60;1.13;;;8.60;99.90;;;;;;7286967;19;20228;-78
2023/04/13 04:47:58;;;;;;;7.37;1.13;;;8.70;99.90;;;;;;7285029;19;20224;-77
2023/04/13 04:50:25;;;;;;;6.93;1.07;;;8.80;99.90;;;;;;7285677;19;20192;-77
2023/04/13 04:53:05;;;;;;;7.27;1.30;;;8.90;99.90;;;;;;7286135;19;20190;-77
2023/04/13 04:55:32;;;;;;;8.63;1.30;;;8.90;99.90;;;;;;7287833;19;20188;-77
2023/04/13 04:57:58;;;;;;;9.10;1.27;;;9.00;99.90;;;;;;7286624;19;20178;-77
2023/04/13 05:00:29;;;;;;;11.57;2.00;;;9.10;99.90;;;;;;7286917;19;20196;-77
2023/04/13 05:03:11;;;;;;;7.33;1.40;;;9.20;99.90;;;;;;7265774;19;20652;-77
2023/04/13 05:05:41;;;;;;;9.13;1.70;;;9.20;99.90;;;;;;7286059;19;20193;-77
2023/04/13 05:08:12;;;;;;;12.07;1.77;;;9.30;99.90;;;;;;7286133;19;20203;-77
2023/04/13 05:10:47;;;;;;;10.03;1.97;;;9.40;99.90;;;;;;7286555;19;20683;-78
2023/04/13 05:13:13;;;;;;;15.37;2.50;;;9.40;99.90;;;;;;7286330;19;20640;-79
2023/04/13 05:15:43;;;;;;;17.80;2.60;;;9.50;99.90;;;;;;7287257;19;20205;-79
2023/04/13 05:18:11;;;;;;;16.73;2.80;;;9.50;99.90;;;;;;7285240;19;20187;-77
2023/04/13 05:20:37;;;;;;;14.27;2.57;;;9.40;99.90;;;;;;7299437;19;20193;-78
2023/04/13 05:23:06;;;;;;;17.50;2.80;;;9.40;99.90;;;;;;7307480;19;20193;-77
2023/04/13 05:25:38;;;;;;;15.57;2.80;;;9.50;99.90;;;;;;7282054;19;20220;-76
2023/04/13 05:28:09;;;;;;;18.00;2.67;;;9.50;99.90;;;;;;7288049;19;20203;-77
2023/04/13 05:30:35;;;;;;;14.57;2.80;;;9.60;99.90;;;;;;7306736;19;20190;-78
2023/04/13 05:33:06;;;;;;;17.10;3.70;;;9.60;99.90;;;;;;7285815;19;20200;-78
2023/04/13 05:35:33;;;;;;;17.80;3.10;;;9.70;99.90;;;;;;7287274;19;20193;-78
2023/04/13 05:38:00;;;;;;;22.00;3.70;;;9.70;99.90;;;;;;7283694;19;20184;-78
2023/04/13 05:40:29;;;;;;;22.60;3.63;;;9.60;99.90;;;;;;7286431;19;20673;-77
2023/04/13 05:42:57;;;;;;;16.93;3.20;;;9.70;99.90;;;;;;7285170;19;20195;-79
2023/04/13 05:45:27;;;;;;;17.47;3.23;;;9.70;99.90;;;;;;7284836;19;21302;-78
2023/04/13 05:48:13;;;;;;;19.23;4.07;;;9.70;99.90;;;;;;7183470;19;2004838;-78
2023/04/13 05:50:42;;;;;;;20.47;3.23;;;9.60;99.90;;;;;;7285733;19;20205;-78
2023/04/13 05:53:09;;;;;;;21.03;3.73;;;9.70;99.90;;;;;;7290774;19;20201;-78
2023/04/13 05:55:45;;;;;;;19.80;3.30;;;9.70;99.90;;;;;;7284107;19;20193;-79
2023/04/13 05:58:11;;;;;;;25.27;3.57;;;9.70;99.90;;;;;;7285200;19;20193;-77
2023/04/13 06:00:37;;;;;;;19.67;2.93;;;9.70;99.90;;;;;;7304546;19;20244;-76
2023/04/13 06:03:07;;;;;;;20.60;3.20;;;9.80;99.90;;;;;;7300667;19;20181;-77
2023/04/13 06:05:35;;;;;;;21.13;4.03;;;9.80;99.90;;;;;;7296900;19;20201;-79
2023/04/13 06:08:01;;;;;;;21.80;2.97;;;9.90;99.90;;;;;;7284695;19;20737;-79
2023/04/13 06:10:27;;;;;;;23.73;3.47;;;9.90;99.90;;;;;;7285256;19;20194;-79
2023/04/13 06:12:54;;;;;;;25.20;3.30;;;9.90;99.90;;;;;;7284387;19;20196;-79
2023/04/13 06:15:20;;;;;;;27.23;3.27;;;10.00;99.90;;;;;;7284442;19;20218;-79
2023/04/13 06:17:49;;;;;;;15.13;2.87;;;10.10;99.90;;;;;;7285351;19;20192;-79
2023/04/13 06:20:15;;;;;;;20.03;3.03;;;10.20;99.90;;;;;;7282706;19;20192;-79
2023/04/13 06:22:41;;;;;;;19.30;3.50;;;10.30;99.90;;;;;;7285027;19;20189;-79
2023/04/13 06:25:07;;;;;;;19.77;3.53;;;10.60;99.90;;;;;;7303817;19;20204;-76
2023/04/13 06:27:35;;;;;;;22.67;3.07;;;11.00;99.90;;;;;;7306714;19;20188;-79
2023/04/13 06:30:01;;;;;;;18.70;3.20;;;11.30;99.90;;;;;;7282692;19;20185;-79
2023/04/13 06:32:31;;;;;;;18.13;3.50;;;11.70;99.90;;;;;;7284703;19;20190;-79
2023/04/13 06:34:57;;;;;;;21.93;3.47;;;12.30;99.90;;;;;;7283199;19;20247;-79
2023/04/13 06:37:27;;;;;;;21.47;3.13;;;12.60;99.90;;;;;;7282408;19;20281;-79
2023/04/13 06:39:55;;;;;;;18.40;3.50;;;13.00;99.90;;;;;;7284300;19;20212;-79
2023/04/13 06:42:22;;;;;;;20.63;3.20;;;13.70;99.90;;;;;;7284567;19;20229;-79
2023/04/13 06:44:59;;;;;;;19.67;3.13;;;14.60;99.90;;;;;;7282150;19;20189;-79
2023/04/13 06:47:30;;;;;;;19.57;3.10;;;15.80;99.90;;;;;;7282621;19;20199;-79
2023/04/13 06:49:57;;;;;;;17.33;3.33;;;15.60;99.90;;;;;;7296669;19;20229;-79
2023/04/13 06:52:22;;;;;;;18.00;3.07;;;15.50;99.90;;;;;;7283106;19;20657;-80
2023/04/13 06:54:48;;;;;;;19.43;3.20;;;14.90;99.90;;;;;;7281381;19;20540;-79
2023/04/13 06:57:34;;;;;;;19.30;3.40;;;14.50;99.90;;;;;;7283368;19;20253;-79
2023/04/13 07:00:00;;;;;;;22.87;3.90;;;14.30;99.90;;;;;;7284036;19;20299;-79
2023/04/13 07:02:26;;;;;;;22.70;3.80;;;13.80;99.90;;;;;;7283029;19;20649;-79
2023/04/13 07:04:53;;;;;;;23.27;3.30;;;13.40;99.90;;;;;;7281331;19;20201;-79
2023/04/13 07:07:21;;;;;;;23.13;3.37;;;13.30;99.90;;;;;;7283296;19;20220;-78
2023/04/13 07:09:47;;;;;;;20.13;3.20;;;13.20;99.90;;;;;;7284465;19;20186;-78
2023/04/13 07:12:13;;;;;;;18.27;2.87;;;14.30;99.90;;;;;;7282826;19;20706;-78
2023/04/13 07:14:39;;;;;;;23.07;3.77;;;14.90;99.90;;;;;;7284321;19;20185;-77
2023/04/13 07:17:08;;;;;;;17.30;3.33;;;15.00;99.90;;;;;;7288809;19;20660;-77
2023/04/13 07:19:36;;;;;;;19.27;3.10;;;14.70;99.90;;;;;;7304268;19;20244;-77
2023/04/13 07:22:03;;;;;;;26.20;3.40;;;14.10;99.90;;;;;;7283648;19;20657;-79
2023/04/13 07:24:32;;;;;;;19.77;2.93;;;14.20;99.90;;;;;;7281775;19;20180;-79
2023/04/13 07:27:00;;;;;;;18.93;3.10;;;14.40;99.90;;;;;;7281655;19;20717;-79
2023/04/13 07:29:26;;;;;;;18.97;3.57;;;14.50;99.90;;;;;;7281839;19;20655;-78
2023/04/13 07:32:01;;;;;;;19.30;3.47;;;14.00;99.90;;;;;;7281493;19;20280;-78
2023/04/13 07:34:29;;;;;;;26.00;4.10;;;14.20;99.90;;;;;;7282382;19;20199;-79
2023/04/13 07:36:58;;;;;;;19.93;2.77;;;14.40;99.90;;;;;;7280326;19;20196;-79
2023/04/13 07:39:24;;;;;;;19.43;3.07;;;13.90;99.90;;;;;;7281683;19;20192;-79
2023/04/13 07:41:52;;;;;;;22.23;3.13;;;14.00;99.90;;;;;;7287805;19;20193;-79
2023/04/13 07:44:25;;;;;;;21.40;2.93;;;14.00;99.90;;;;;;7288522;19;20210;-78
2023/04/13 07:46:51;;;;;;;19.37;3.23;;;13.80;99.90;;;;;;7288695;19;20193;-79
2023/04/13 07:49:18;;;;;;;20.87;3.07;;;14.20;99.90;;;;;;7287540;19;20515;-78
2023/04/13 07:51:44;;;;;;;22.87;2.90;;;14.10;99.90;;;;;;7288472;19;20189;-78
2023/04/13 07:54:10;;;;;;;16.30;2.60;;;13.80;99.90;;;;;;7286541;19;20203;-78
2023/04/13 07:56:36;;;;;;;16.40;2.47;;;13.60;99.90;;;;;;7310499;19;20279;-79
2023/04/13 07:59:04;;;;;;;18.33;3.17;;;13.10;99.90;;;;;;7288019;19;20182;-78
2023/04/13 08:01:31;;;;;;;23.03;3.30;;;12.90;99.90;;;;;;7289519;19;20182;-78
2023/04/13 08:04:00;;;;;;;16.20;2.87;;;12.60;99.90;;;;;;7288205;19;20660;-78
2023/04/13 08:06:27;;;;;;;18.27;2.93;;;12.50;99.90;;;;;;7288197;19;20212;-78
2023/04/13 08:08:53;;;;;;;21.73;3.00;;;12.60;99.90;;;;;;7288428;19;20191;-78
2023/04/13 08:11:19;;;;;;;27.07;3.13;;;12.70;99.90;;;;;;7287270;19;20187;-78
2023/04/13 08:13:46;;;;;;;18.50;2.50;;;12.60;99.90;;;;;;7287409;19;20185;-78
2023/04/13 08:16:11;;;;;;;22.40;3.13;;;12.40;99.90;;;;;;7289801;19;20198;-79
2023/04/13 08:18:40;;;;;;;17.70;3.07;;;12.50;99.90;;;;;;7286388;19;20195;-78
2023/04/13 08:21:11;;;;;;;18.20;3.00;;;12.60;99.90;;;;;;7304962;19;20188;-78
2023/04/13 08:23:42;;;;;;;16.20;3.20;;;12.70;99.90;;;;;;7301632;19;20211;-77
2023/04/13 08:26:18;;;;;;;18.83;3.60;;;12.70;99.90;;;;;;7302407;19;20191;-78
2023/04/13 08:28:46;;;;;;;19.37;2.80;;;13.00;99.90;;;;;;7287731;19;20185;-78
2023/04/13 08:31:12;;;;;;;16.10;2.37;;;12.80;99.90;;;;;;7286182;19;20547;-78
2023/04/13 08:33:42;;;;;;;18.17;3.13;;;13.00;99.90;;;;;;7288367;19;20955;-78
2023/04/13 08:36:08;;;;;;;18.93;2.77;;;13.10;99.90;;;;;;7309351;19;20648;-78
2023/04/13 08:38:34;;;;;;;22.17;2.67;;;13.50;99.90;;;;;;7288080;19;20185;-78
2023/04/13 08:41:02;;;;;;;15.70;2.90;;;14.90;99.90;;;;;;7286783;19;20193;-78
2023/04/13 08:43:34;;;;;;;15.13;2.50;;;14.50;99.90;;;;;;7287859;19;20666;-78
2023/04/13 08:46:03;;;;;;;18.37;2.70;;;13.90;99.90;;;;;;7286835;19;20194;-79
2023/04/13 08:48:32;;;;;;;17.90;2.90;;;13.70;99.90;;;;;;7284199;19;20198;-78
2023/04/13 08:51:00;;;;;;;17.07;2.53;;;13.60;99.90;;;;;;7286801;19;20660;-79
2023/04/13 08:53:28;;;;;;;14.33;2.30;;;13.90;99.90;;;;;;7286120;19;20281;-79
2023/04/13 08:55:59;;;;;;;15.93;2.17;;;14.00;99.90;;;;;;7286488;19;20192;-78
2023/04/13 08:58:27;;;;;;;14.10;2.30;;;14.20;99.90;;;;;;7287140;19;20201;-79
2023/04/13 09:00:55;;;;;;;15.23;2.47;;;14.50;99.90;;;;;;7286635;19;20223;-79
2023/04/13 09:03:28;;;;;;;15.73;2.20;;;15.20;99.90;;;;;;7286093;19;20660;-79
2023/04/13 09:06:03;;;;;;;13.03;2.20;;;16.80;99.90;;;;;;7285658;19;21004;-79
2023/04/13 09:08:34;;;;;;;16.17;2.47;;;17.40;99.90;;;;;;7285229;19;20194;-78
2023/04/13 09:11:03;;;;;;;15.00;2.70;;;17.90;99.90;;;;;;7285936;19;20651;-79
2023/04/13 09:13:29;;;;;;;11.03;2.10;;;19.00;99.90;;;;;;7285751;19;20182;-77
2023/04/13 09:15:56;;;;;;;12.00;2.00;;;20.30;99.90;;;;;;7284805;19;20653;-77
2023/04/13 09:18:49;;;;;;;13.13;2.10;;;20.00;99.90;;;;;;7182421;19;2005094;-77
2023/04/13 09:21:16;;;;;;;15.03;2.40;;;19.60;99.90;;;;;;7285612;19;20191;-78
2023/04/13 09:23:56;;;;;;;15.83;2.47;;;19.60;99.90;;;;;;7285237;19;20196;-76
2023/04/13 09:26:21;;;;;;;12.60;2.30;;;18.50;99.90;;;;;;7286136;19;20671;-77
2023/04/13 09:28:50;;;;;;;9.83;1.90;;;20.10;99.90;;;;;;7286434;19;20188;-77
2023/04/13 09:31:16;;;;;;;15.40;2.30;;;18.60;99.90;;;;;;7286603;19;20188;-77
2023/04/13 09:33:47;;;;;;;13.67;2.20;;;17.00;99.90;;;;;;7285629;19;20208;-77
2023/04/13 09:36:15;;;;;;;17.93;2.60;;;16.50;99.90;;;;;;7285540;19;20198;-76
2023/04/13 09:38:45;;;;;;;16.07;2.50;;;16.50;99.90;;;;;;7283895;19;20673;-76
2023/04/13 09:41:11;;;;;;;14.60;2.40;;;15.90;99.90;;;;;;7285975;19;20594;-76
2023/04/13 09:43:37;;;;;;;15.33;2.40;;;15.30;99.90;;;;;;7308200;19;20236;-78
2023/04/13 09:46:12;;;;;;;16.33;2.80;;;15.20;99.90;;;;;;7285696;19;20196;-78
2023/04/13 09:48:39;;;;;;;14.73;2.30;;;15.20;99.90;;;;;;7287435;19;20220;-78
2023/04/13 09:51:05;;;;;;;15.67;2.30;;;15.60;99.90;;;;;;7286639;19;20190;-76
2023/04/13 09:53:41;;;;;;;14.00;2.33;;;15.70;99.90;;;;;;7285057;19;20201;-79
2023/04/13 09:56:08;;;;;;;18.10;2.47;;;16.80;99.90;;;;;;7327907;19;20226;-78
2023/04/13 09:58:45;;;;;;;10.53;1.97;;;18.20;99.90;;;;;;7396095;19;20613;-77
2023/04/13 10:01:11;;;;;;;16.97;3.10;;;19.50;99.90;;;;;;7379676;19;20121;-78
2023/04/13 10:03:37;;;;;;;18.33;2.67;;;17.90;99.90;;;;;;7303761;19;20189;-79
2023/04/13 10:06:06;;;;;;;18.37;2.57;;;16.50;99.90;;;;;;7284915;19;20205;-79
2023/04/13 10:08:42;;;;;;;14.13;2.43;;;16.30;99.90;;;;;;7285831;19;20185;-78
2023/04/13 10:11:13;;;;;;;13.97;2.23;;;15.80;99.90;;;;;;7285295;19;20240;-79
2023/04/13 10:13:57;;;;;;;12.33;1.93;;;16.60;99.90;;;;;;7282791;19;20285;-77
2023/04/13 10:16:41;;;;;;;9.93;1.80;;;17.60;99.90;;;;;;7285085;19;20188;-80
2023/04/13 10:19:11;;;;;;;13.97;2.20;;;19.10;99.90;;;;;;7285402;19;20222;-77
2023/04/13 10:21:39;;;;;;;8.60;1.83;;;19.60;99.90;;;;;;7284310;19;20253;-77
2023/04/13 10:24:07;;;;;;;10.07;1.67;;;20.60;99.90;;;;;;7284346;19;20191;-77
2023/04/13 10:26:35;;;;;;;10.30;1.70;;;18.70;99.90;;;;;;7287368;19;20575;-76
2023/04/13 10:29:02;;;;;;;16.43;2.30;;;17.30;99.90;;;;;;7284631;19;20695;-76
2023/04/13 10:31:39;;;;;;;10.47;2.07;;;16.30;99.90;;;;;;7283822;19;20190;-78
2023/04/13 10:34:06;;;;;;;13.30;2.23;;;15.90;99.90;;;;;;7285326;19;20194;-77
2023/04/13 10:36:42;;;;;;;9.03;1.80;;;16.90;99.90;;;;;;7283419;19;20181;-76
2023/04/13 10:39:23;;;;;;;13.33;2.20;;;17.90;99.90;;;;;;7284837;19;20564;-79
2023/04/13 10:42:09;;;;;;;11.23;1.90;;;19.50;99.90;;;;;;7181685;19;2004557;-79
2023/04/13 10:44:48;;;;;;;11.73;2.10;;;21.80;99.90;;;;;;7283840;19;20205;-79
2023/04/13 10:47:15;;;;;;;11.03;1.83;;;22.20;97.90;;;;;;7181231;19;2004584;-79
2023/04/13 10:49:42;;;;;;;12.20;1.83;;;20.90;97.90;;;;;;7283222;19;20543;-79
2023/04/13 10:52:12;;;;;;;11.03;2.10;;;21.10;99.90;;;;;;7305271;19;20184;-79
2023/04/13 10:54:40;;;;;;;8.33;1.90;;;19.90;98.40;;;;;;7284081;19;20181;-79
2023/04/13 10:57:08;;;;;;;14.43;2.10;;;19.40;98.70;;;;;;7284873;19;20188;-79
2023/04/13 10:59:48;;;;;;;11.27;1.77;;;19.40;98.20;;;;;;7284316;19;20595;-79
2023/04/13 11:02:16;;;;;;;12.63;2.10;;;19.00;99.30;;;;;;7181152;19;2004991;-79
2023/04/13 11:04:43;;;;;;;7.83;1.40;;;19.50;99.90;;;;;;7282679;19;20205;-79
2023/04/13 11:07:13;;;;;;;10.43;1.80;;;20.20;97.90;;;;;;7301495;19;20561;-78
2023/04/13 11:09:41;;;;;;;9.30;1.60;;;21.00;92.40;;;;;;7298254;19;20724;-78
2023/04/13 11:12:07;;;;;;;8.50;1.60;;;21.00;90.70;;;;;;7304447;19;20184;-79
2023/04/13 11:14:37;;;;;;;7.27;1.30;;;21.40;91.30;;;;;;7283737;19;20188;-79
2023/04/13 11:17:17;;;;;;;8.33;1.40;;;22.60;89.70;;;;;;7289055;19;20195;-80
2023/04/13 11:19:50;;;;;;;11.43;1.90;;;22.10;84.60;;;;;;7268954;19;20182;-79
2023/04/13 11:22:17;;;;;;;7.07;1.60;;;22.00;86.20;;;;;;7289109;19;20694;-79
2023/04/13 11:24:46;;;;;;;7.67;1.60;;;22.90;85.80;;;;;;7289168;19;20178;-80
2023/04/13 11:27:16;;;;;;;8.10;1.47;;;24.60;80.50;;;;;;7288076;19;20196;-79
2023/04/13 11:29:41;;;;;;;7.73;1.60;;;24.60;75.10;;;;;;7287787;19;20188;-79
2023/04/13 11:32:17;;;;;;;9.47;1.40;;;25.60;70.20;;;;;;7312170;19;20196;-77
2023/04/13 11:34:43;;;;;;;6.77;1.20;;;26.90;70.10;;;;;;7267849;19;20189;-78
2023/04/13 11:37:10;;;;;;;8.27;1.40;;;26.80;61.70;;;;;;7309287;19;20224;-76
2023/04/13 11:39:37;;;;;;;7.73;1.30;;;25.90;60.30;;;;;;7374843;19;20718;-77
2023/04/13 11:42:05;;;;;;;8.83;1.50;;;24.80;65.20;;;;;;7404630;19;20141;-79
2023/04/13 11:44:34;;;;;;;8.97;1.13;;;25.00;65.00;;;;;;7332762;19;20549;-79
2023/04/13 11:47:02;;;;;;;6.27;1.20;;;22.90;62.30;;;;;;7284119;19;20188;-77
2023/04/13 11:49:29;;;;;;;7.70;1.30;;;21.50;66.50;;;;;;7288113;19;20191;-77
2023/04/13 11:51:55;;;;;;;9.20;1.30;;;21.30;70.60;;;;;;7285692;19;20192;-77
2023/04/13 11:54:22;;;;;;;8.60;1.43;;;20.60;70.70;;;;;;7287927;19;20557;-77
2023/04/13 11:56:48;;;;;;;7.40;1.30;;;21.30;74.10;;;;;;7286971;19;20194;-79
2023/04/13 11:59:14;;;;;;;7.37;1.30;;;21.30;73.50;;;;;;7286367;19;20202;-79
2023/04/13 12:01:40;;;;;;;9.83;1.47;;;21.70;73.00;;;;;;7300365;19;20258;-76
2023/04/13 12:04:06;;;;;;;8.70;1.27;;;21.20;69.70;;;;;;7309582;19;20711;-77
2023/04/13 12:06:33;;;;;;;5.37;1.20;;;21.40;70.20;;;;;;7277504;19;20259;-79
2023/04/13 12:09:00;;;;;;;5.47;1.20;;;22.50;69.30;;;;;;7281920;19;20288;-79
2023/04/13 12:11:34;;;;;;;6.77;1.10;;;22.90;66.20;;;;;;7290613;19;20192;-78
2023/04/13 12:14:00;;;;;;;9.87;1.43;;;23.60;69.30;;;;;;7288584;19;20189;-80
2023/04/13 12:16:27;;;;;;;6.90;1.20;;;23.70;64.50;;;;;;7290421;19;20280;-79
2023/04/13 12:18:54;;;;;;;8.47;1.40;;;23.90;66.40;;;;;;7288394;19;20196;-80
2023/04/13 12:21:20;;;;;;;9.43;1.27;;;23.10;62.10;;;;;;7287068;19;20530;-81
2023/04/13 12:23:53;;;;;;;7.43;1.27;;;22.20;62.90;;;;;;7284592;19;20208;-80
2023/04/13 12:26:19;;;;;;;7.87;1.20;;;21.80;63.50;;;;;;7284832;19;20226;-79
2023/04/13 12:28:46;;;;;;;5.57;1.20;;;22.80;68.60;;;;;;7285174;19;20185;-81
2023/04/13 12:31:12;;;;;;;6.93;1.40;;;23.10;65.80;;;;;;7284984;19;20185;-79
2023/04/13 12:33:39;;;;;;;8.17;1.40;;;22.40;63.70;;;;;;7307942;19;20574;-79
2023/04/13 12:36:05;;;;;;;8.33;1.50;;;22.40;67.10;;;;;;7287618;19;20586;-80
2023/04/13 12:38:32;;;;;;;11.20;1.67;;;21.40;67.40;;;;;;7289112;19;20192;-81
2023/04/13 12:40:59;;;;;;;7.87;1.37;;;20.70;73.30;;;;;;7290050;19;20547;-81
2023/04/13 12:43:25;;;;;;;6.53;1.50;;;19.70;71.90;;;;;;7285746;19;20190;-81
2023/04/13 12:45:52;;;;;;;6.73;1.17;;;19.40;77.80;;;;;;7272996;19;20277;-80
2023/04/13 12:48:18;;;;;;;10.13;1.50;;;19.30;73.00;;;;;;7283925;19;20663;-80
2023/04/13 12:50:44;;;;;;;7.47;1.27;;;18.90;73.70;;;;;;7286174;19;20186;-80
2023/04/13 12:53:13;;;;;;;8.10;1.30;;;18.40;76.90;;;;;;7292931;19;20188;-80
2023/04/13 12:55:40;;;;;;;9.13;1.57;;;18.50;79.20;;;;;;7305511;19;20252;-79